地図

経路データ

SID SEASON NUMBER BASIN SUBBASIN NAME ISO_TIME NATURE LAT LON WMO_WIND WMO_PRES WMO_AGENCY TRACK_TYPE DIST2LAND LANDFALL IFLAG USA_AGENCY USA_ATCF_ID USA_LAT USA_LON USA_RECORD USA_STATUS USA_WIND USA_PRES USA_SSHS USA_R34_NE USA_R34_SE USA_R34_SW USA_R34_NW USA_R50_NE USA_R50_SE USA_R50_SW USA_R50_NW USA_R64_NE USA_R64_SE USA_R64_SW USA_R64_NW USA_POCI USA_ROCI USA_RMW USA_EYE TOKYO_LAT TOKYO_LON TOKYO_GRADE TOKYO_WIND TOKYO_PRES TOKYO_R50_DIR TOKYO_R50_LONG TOKYO_R50_SHORT TOKYO_R30_DIR TOKYO_R30_LONG TOKYO_R30_SHORT TOKYO_LAND CMA_LAT CMA_LON CMA_CAT CMA_WIND CMA_PRES HKO_LAT HKO_LON HKO_CAT HKO_WIND HKO_PRES NEWDELHI_LAT NEWDELHI_LON NEWDELHI_GRADE NEWDELHI_WIND NEWDELHI_PRES NEWDELHI_CI NEWDELHI_DP NEWDELHI_POCI REUNION_LAT REUNION_LON REUNION_TYPE REUNION_WIND REUNION_PRES REUNION_TNUM REUNION_CI REUNION_RMW REUNION_R34_NE REUNION_R34_SE REUNION_R34_SW REUNION_R34_NW REUNION_R50_NE REUNION_R50_SE REUNION_R50_SW REUNION_R50_NW REUNION_R64_NE REUNION_R64_SE REUNION_R64_SW REUNION_R64_NW BOM_LAT BOM_LON BOM_TYPE BOM_WIND BOM_PRES BOM_TNUM BOM_CI BOM_RMW BOM_R34_NE BOM_R34_SE BOM_R34_SW BOM_R34_NW BOM_R50_NE BOM_R50_SE BOM_R50_SW BOM_R50_NW BOM_R64_NE BOM_R64_SE BOM_R64_SW BOM_R64_NW BOM_ROCI BOM_POCI BOM_EYE BOM_POS_METHOD BOM_PRES_METHOD NADI_LAT NADI_LON NADI_CAT NADI_WIND NADI_PRES WELLINGTON_LAT WELLINGTON_LON WELLINGTON_WIND WELLINGTON_PRES DS824_LAT DS824_LON DS824_STAGE DS824_WIND DS824_PRES TD9636_LAT TD9636_LON TD9636_STAGE TD9636_WIND TD9636_PRES TD9635_LAT TD9635_LON TD9635_WIND TD9635_PRES TD9635_ROCI NEUMANN_LAT NEUMANN_LON NEUMANN_CLASS NEUMANN_WIND NEUMANN_PRES MLC_LAT MLC_LON MLC_CLASS MLC_WIND MLC_PRES USA_GUST BOM_GUST BOM_GUST_PER REUNION_GUST REUNION_GUST_PER USA_SEAHGT USA_SEARAD_NE USA_SEARAD_SE USA_SEARAD_SW USA_SEARAD_NW STORM_SPEED STORM_DIR
1871229N11329 1871 17 NA NA NOT_NAMED 1871-08-17 00:00:00 TS 11.2000 -30.7000 40 hurdat_atl main 1483 1483 O_____________ hurdat_atl AL041871 11.2000 -30.7000 TS 40 0 15 282
1871229N11329 1871 17 NA NA NOT_NAMED 1871-08-17 03:00:00 TS 11.3552 -31.4273 main 1550 1550 P_____________ AL041871 11.3552 -31.4273 TS 40 0 13 290
1871229N11329 1871 17 NA NA NOT_NAMED 1871-08-17 06:00:00 TS 11.6429 -31.9714 40 hurdat_atl main 1608 1605 O____________O hurdat_atl AL041871 11.5000 -32.2000 TS 40 0 12.5000 -30.6000 TS 35 14 291
1871229N11329 1871 17 NA NA NOT_NAMED 1871-08-17 09:00:00 TS 11.8416 -32.7441 main 1677 1677 P____________P AL041871 11.6349 -33.0427 TS 40 0 12.6682 -31.5496 TS 37 16 286
1871229N11329 1871 17 NA NA NOT_NAMED 1871-08-17 12:00:00 TS 12.0727 -33.5182 40 hurdat_atl main 1755 1755 O____________O hurdat_atl AL041871 11.8000 -33.9000 TS 40 0 12.8000 -32.5000 TS 40 16 287
1871229N11329 1871 17 NA NA NOT_NAMED 1871-08-17 15:00:00 TS 12.3129 -34.2736 main 1808 1801 P____________P AL041871 12.0270 -34.6852 TS 40 0 12.8847 -33.4504 TS 45 16 286
1871229N11329 1871 17 NA NA NOT_NAMED 1871-08-17 18:00:00 TS 12.5333 -35.1333 40 hurdat_atl main 1801 1798 O____________O hurdat_atl AL041871 12.3000 -35.5000 TS 40 0 13.0000 -34.4000 TS 50 18 286
1871229N11329 1871 17 NA NA NOT_NAMED 1871-08-17 21:00:00 TS 12.8115 -36.0733 main 1805 1803 P____________P AL041871 12.5925 -36.4351 TS 45 0 13.2497 -35.3497 TS 55 19 287
1871229N11329 1871 17 NA NA NOT_NAMED 1871-08-18 00:00:00 TS 13.1000 -37.0333 50 hurdat_atl main 1819 1784 O____________O hurdat_atl AL041871 12.9000 -37.4000 TS 50 0 13.5000 -36.3000 TS 60 19 286
1871229N11329 1871 17 NA NA NOT_NAMED 1871-08-18 03:00:00 TS 13.3429 -37.9552 main 1775 1716 P____________P AL041871 13.2071 -38.3077 TS 50 0 13.6146 -37.2504 TS 60 18 285
1871229N11329 1871 17 NA NA NOT_NAMED 1871-08-18 06:00:00 TS 13.5667 -38.8667 50 hurdat_atl main 1714 1659 O____________O hurdat_atl AL041871 13.5000 -39.2000 TS 50 0 13.7000 -38.2000 TS 60 19 284
1871229N11329 1871 17 NA NA NOT_NAMED 1871-08-18 09:00:00 TS 13.8031 -39.7983 main 1650 1591 P____________P AL041871 13.7799 -40.1224 TS 50 0 13.8496 -39.1499 TS 62 18 284
1871229N11329 1871 17 NA NA NOT_NAMED 1871-08-18 12:00:00 TS 14.0000 -40.7000 50 hurdat_atl main 1591 1536 O____________O hurdat_atl AL041871 14.0000 -41.0000 TS 50 0 14.0000 -40.1000 HU 65 17 281
1871229N11329 1871 17 NA NA NOT_NAMED 1871-08-18 15:00:00 TS 14.1193 -41.5070 main 1536 1484 P____________P AL041871 14.1292 -41.7353 TS 50 0 14.0996 -41.0503 HU 65 16 277
1871229N11329 1871 17 NA NA NOT_NAMED 1871-08-18 18:00:00 TS 14.2000 -42.3333 50 hurdat_atl main 1484 1429 O____________O hurdat_atl AL041871 14.2000 -42.5000 TS 50 0 14.2000 -42.0000 HU 65 17 275
1871229N11329 1871 17 NA NA NOT_NAMED 1871-08-18 21:00:00 TS 14.2833 -43.2968 main 1422 1370 P____________P AL041871 14.2501 -43.4702 TS 55 0 14.3496 -42.9499 HU 67 19 275
1871229N11329 1871 17 NA NA NOT_NAMED 1871-08-19 00:00:00 TS 14.3667 -44.3000 60 hurdat_atl main 1367 1317 O____________O hurdat_atl AL041871 14.3000 -44.5000 TS 60 0 14.5000 -43.9000 HU 70 19 275
1871229N11329 1871 17 NA NA NOT_NAMED 1871-08-19 03:00:00 TS 14.4614 -45.2701 main 1313 1261 P____________P AL041871 14.3923 -45.4799 TS 60 0 14.5996 -44.8503 HU 70 19 276
1871229N11329 1871 17 NA NA NOT_NAMED 1871-08-19 06:00:00 TS 14.5667 -46.2000 60 hurdat_atl main 1264 1228 O____________O hurdat_atl AL041871 14.5000 -46.4000 TS 60 0 14.7000 -45.8000 HU 70 17 277
1871229N11329 1871 17 NA NA NOT_NAMED 1871-08-19 09:00:00 TS 14.6827 -47.0526 main 1222 1191 P____________P AL041871 14.5992 -47.2001 TS 65 1 14.8497 -46.7574 HU 72 17 278
1871229N11329 1871 17 NA NA NOT_NAMED 1871-08-19 12:00:00 TS 14.8000 -47.9000 70 hurdat_atl main 1191 1165 O____________O hurdat_atl AL041871 14.7000 -48.0000 HU 70 1 15.0000 -47.7000 HU 75 17 277
1871229N11329 1871 17 NA NA NOT_NAMED 1871-08-19 15:00:00 TS 14.8995 -48.7985 main 1160 1131 P____________P AL041871 14.7995 -48.8977 HU 70 1 15.0995 -48.6003 HU 75 18 276
1871229N11329 1871 17 NA NA NOT_NAMED 1871-08-19 18:00:00 TS 15.0000 -49.7667 70 hurdat_atl main 1126 1095 O____________O hurdat_atl AL041871 14.9000 -49.9000 HU 70 1 15.2000 -49.5000 HU 75 20 276
1871229N11329 1871 17 NA NA NOT_NAMED 1871-08-19 21:00:00 TS 15.1139 -50.8226 main 1095 1071 P____________P AL041871 14.9998 -51.0201 HU 75 1 15.3420 -50.4276 HU 77 21 276
1871229N11329 1871 17 NA NA NOT_NAMED 1871-08-20 00:00:00 TS 15.2333 -51.9333 80 hurdat_atl main 1071 1014 O____________O hurdat_atl AL041871 15.1000 -52.2000 HU 80 1 15.5000 -51.4000 HU 80 22 276
1871229N11329 1871 17 NA NA NOT_NAMED 1871-08-20 03:00:00 TS 15.3574 -53.0699 main 1004 920 P____________P AL041871 15.2073 -53.3799 HU 80 1 15.6574 -52.4500 HU 80 22 276
1871229N11329 1871 17 NA NA NOT_NAMED 1871-08-20 06:00:00 TS 15.4667 -54.1667 80 hurdat_atl main 911 835 O____________O hurdat_atl AL041871 15.3000 -54.5000 HU 80 1 15.8000 -53.5000 HU 80 20 275
1871229N11329 1871 17 NA NA NOT_NAMED 1871-08-20 09:00:00 TS 15.5226 -55.1471 main 835 770 P____________P AL041871 15.3343 -55.4879 HU 85 2 15.8994 -54.4653 HU 82 18 274
1871229N11329 1871 17 NA NA NOT_NAMED 1871-08-20 12:00:00 TS 15.6000 -56.0667 90 hurdat_atl main 763 714 O____________O hurdat_atl AL041871 15.4000 -56.4000 HU 90 2 16.0000 -55.4000 HU 85 18 278
1871229N11329 1871 17 NA NA NOT_NAMED 1871-08-20 15:00:00 TS 15.7579 -56.9884 main 716 677 P____________P AL041871 15.5620 -57.3076 HU 90 2 16.1496 -56.3499 HU 87 18 282
1871229N11329 1871 17 NA NA NOT_NAMED 1871-08-20 18:00:00 TS 15.9667 -57.9000 90 hurdat_atl main 681 653 O____________O hurdat_atl AL041871 15.8000 -58.2000 HU 90 2 16.3000 -57.3000 HU 90 18 284
1871229N11329 1871 17 NA NA NOT_NAMED 1871-08-20 21:00:00 TS 16.1848 -58.8343 main 660 650 P____________P AL041871 16.0773 -59.1151 HU 95 2 16.3999 -58.2727 HU 95 18 285
1871229N11329 1871 17 NA NA NOT_NAMED 1871-08-21 00:00:00 TS 16.4333 -59.7333 100 hurdat_atl main 653 566 O____________O hurdat_atl AL041871 16.4000 -60.0000 HU 100 3 16.5000 -59.2000 MH 100 17 288
1871229N11329 1871 17 NA CS NOT_NAMED 1871-08-21 03:00:00 TS 16.7113 -60.5659 main 556 475 P____________P AL041871 16.7498 -60.8375 HU 100 3 16.6344 -60.0226 MH 100 16 290
1871229N11329 1871 17 NA CS NOT_NAMED 1871-08-21 06:00:00 TS 17.0000 -61.3333 100 hurdat_atl main 475 394 O____________O hurdat_atl AL041871 17.1000 -61.6000 HU 100 3 16.8000 -60.8000 MH 100 15 291
1871229N11329 1871 17 NA CS NOT_NAMED 1871-08-21 09:00:00 TS 17.2689 -62.0586 main 384 316 P____________P AL041871 17.4147 -62.2877 HU 100 3 16.9772 -61.6003 MH 107 14 292
1871229N11329 1871 17 NA CS NOT_NAMED 1871-08-21 12:00:00 TS 17.5333 -62.7333 100 965 hurdat_atl main 316 247 O____________O hurdat_atl AL041871 17.7000 -62.9000 HU 100 965 3 17.2000 -62.4000 MH 115 947 14 292
1871229N11329 1871 17 NA CS NOT_NAMED 1871-08-21 15:00:00 TS 17.7872 -63.3770 main 236 170 P____________P AL041871 17.9421 -63.4505 HU 100 964 3 17.4775 -63.2300 MH 107 950 13 294
1871229N11329 1871 17 NA CS NOT_NAMED 1871-08-21 18:00:00 TS 18.0667 -64.0000 100 hurdat_atl main 169 105 I____________I hurdat_atl AL041871 18.2000 -64.0000 HU 100 963 3 17.8000 -64.0000 MH 100 954 14 297
1871229N11329 1871 17 NA CS NOT_NAMED 1871-08-21 21:00:00 TS 18.4090 -64.6384 main 105 53 P____________P AL041871 18.5425 -64.6424 HU 100 962 3 18.1420 -64.6303 MH 100 958 14 300
1871229N11329 1871 17 NA CS NOT_NAMED 1871-08-22 00:00:00 TS 18.7667 -65.2667 100 962 hurdat_atl main 54 49 O____________O hurdat_atl AL041871 18.9000 -65.3000 HU 100 962 3 18.5000 -65.2000 MH 100 962 14 300
1871229N11329 1871 17 NA NA NOT_NAMED 1871-08-22 03:00:00 TS 19.0932 -65.8819 main 78 78 P____________P AL041871 19.2149 -65.9227 HU 100 3 18.8498 -65.8002 MH 100 13 299
1871229N11329 1871 17 NA NA NOT_NAMED 1871-08-22 06:00:00 TS 19.4000 -66.4667 100 hurdat_atl main 111 111 O____________O hurdat_atl AL041871 19.5000 -66.5000 HU 100 3 19.2000 -66.4000 MH 100 12 299
1871229N11329 1871 17 NA NA NOT_NAMED 1871-08-22 09:00:00 TS 19.6780 -67.0054 main 145 145 P____________P AL041871 19.7422 -67.0080 HU 95 2 19.5498 -67.0003 MH 97 12 299
1871229N11329 1871 17 NA NA NOT_NAMED 1871-08-22 12:00:00 TS 19.9667 -67.5333 90 hurdat_atl main 176 164 O____________O hurdat_atl AL041871 20.0000 -67.5000 HU 90 2 19.9000 -67.6000 HU 95 12 302
1871229N11329 1871 17 NA NA NOT_NAMED 1871-08-22 15:00:00 TS 20.3166 -68.1000 main 168 158 P____________P AL041871 20.3500 -68.0498 HU 90 2 20.2498 -68.2003 HU 95 13 303
1871229N11329 1871 17 NA NA NOT_NAMED 1871-08-22 18:00:00 TS 20.6667 -68.6667 90 hurdat_atl main 168 165 O____________O hurdat_atl AL041871 20.7000 -68.6000 HU 90 2 20.6000 -68.8000 HU 95 12 302
1871229N11329 1871 17 NA NA NOT_NAMED 1871-08-22 21:00:00 TS 20.9446 -69.1856 main 167 167 P____________P AL041871 20.9420 -69.0783 HU 90 2 20.9498 -69.4003 HU 95 11 300
1871229N11329 1871 17 NA NA NOT_NAMED 1871-08-23 00:00:00 TS 21.2333 -69.7333 90 hurdat_atl main 181 181 O____________O hurdat_atl AL041871 21.2000 -69.6000 HU 90 2 21.3000 -70.0000 HU 95 13 301
1871229N11329 1871 17 NA NA NOT_NAMED 1871-08-23 03:00:00 TS 21.6217 -70.3847 main 202 202 P____________P AL041871 21.6001 -70.2770 HU 90 2 21.6648 -70.6001 HU 95 15 302
1871229N11329 1871 17 NA NA NOT_NAMED 1871-08-23 06:00:00 TS 22.0000 -71.0667 90 hurdat_atl main 215 174 O____________O hurdat_atl AL041871 22.0000 -71.0000 HU 90 2 22.0000 -71.2000 HU 95 14 297
1871229N11329 1871 17 NA NA NOT_NAMED 1871-08-23 09:00:00 TS 22.2597 -71.7106 main 182 157 P____________P AL041871 22.2572 -71.6657 HU 90 2 22.2648 -71.8004 HU 92 13 293
1871229N11329 1871 17 NA NA NOT_NAMED 1871-08-23 12:00:00 TS 22.5000 -72.3333 90 hurdat_atl main 162 157 O____________O hurdat_atl AL041871 22.5000 -72.3000 HU 90 2 22.5000 -72.4000 HU 90 12 296
1871229N11329 1871 17 NA NA NOT_NAMED 1871-08-23 15:00:00 TS 22.7937 -72.9214 main 179 178 P____________P AL041871 22.8194 -72.8856 HU 90 2 22.7422 -72.9929 HU 90 13 300
1871229N11329 1871 17 NA NA NOT_NAMED 1871-08-23 18:00:00 TS 23.1333 -73.5333 90 hurdat_atl main 214 214 O____________O hurdat_atl AL041871 23.2000 -73.5000 HU 90 2 23.0000 -73.6000 HU 90 14 301
1871229N11329 1871 17 NA NA NOT_NAMED 1871-08-23 21:00:00 TS 23.5233 -74.2400 main 273 273 P____________P AL041871 23.6351 -74.2350 HU 90 2 23.2999 -74.2500 HU 90 15 301
1871229N11329 1871 17 NA NA NOT_NAMED 1871-08-24 00:00:00 TS 23.9333 -74.9667 90 hurdat_atl main 281 213 O____________O hurdat_atl AL041871 24.1000 -75.0000 HU 90 2 23.6000 -74.9000 HU 90 15 302
1871229N11329 1871 17 NA NA NOT_NAMED 1871-08-24 03:00:00 TS 24.3289 -75.6511 main 203 143 P____________P AL041871 24.5648 -75.7227 HU 90 2 23.8572 -75.5079 HU 90 14 302
1871229N11329 1871 17 NA NA NOT_NAMED 1871-08-24 06:00:00 TS 24.7000 -76.3000 90 hurdat_atl main 143 96 O____________O hurdat_atl AL041871 25.0000 -76.4000 HU 90 2 24.1000 -76.1000 HU 90 14 301
1871229N11329 1871 17 NA NA NOT_NAMED 1871-08-24 09:00:00 TS 25.0264 -76.9229 main 96 55 P____________P AL041871 25.3722 -77.0305 HU 90 2 24.3349 -76.7079 HU 90 13 300
1871229N11329 1871 17 NA NA NOT_NAMED 1871-08-24 12:00:00 TS 25.3333 -77.5000 90 hurdat_atl main 55 45 O____________O hurdat_atl AL041871 25.7000 -77.6000 HU 90 2 24.6000 -77.3000 HU 90 12 302
1871229N11329 1871 17 NA NA NOT_NAMED 1871-08-24 15:00:00 TS 25.6447 -78.0346 main 55 55 P____________P AL041871 25.9997 -78.1230 HU 90 2 24.9347 -77.8577 HU 90 11 304
1871229N11329 1871 17 NA NA NOT_NAMED 1871-08-24 18:00:00 TS 25.9667 -78.5333 90 hurdat_atl main 108 108 O____________O hurdat_atl AL041871 26.3000 -78.6000 HU 90 2 25.3000 -78.4000 HU 90 965 11 308
1871229N11329 1871 17 NA NA NOT_NAMED 1871-08-24 21:00:00 TS 26.3459 -79.0206 main 109 50 P____________P AL041871 26.6902 -79.0521 HU 90 2 25.6574 -78.9576 HU 87 11 309
1871229N11329 1871 17 NA NA NOT_NAMED 1871-08-25 00:00:00 TS 26.6667 -79.5000 90 hurdat_atl main 50 19 O____________O hurdat_atl AL041871 27.0000 -79.5000 HU 90 2 26.0000 -79.5000 HU 85 9 283
1871229N11329 1871 17 NA NA NOT_NAMED 1871-08-25 03:00:00 TS 26.5470 -79.9705 main 9 0 P____________P AL041871 26.6706 -79.9518 HU 90 2 26.2997 -80.0080 HU 80 9 288
1871229N11329 1871 17 NA NA NOT_NAMED 1871-08-25 05:00:00 TS 26.8989 -80.3121 90 hurdat_atl main 0 0 O____________P hurdat_atl AL041871 27.1000 -80.3000 L HU 90 2 26.4968 -80.3362 HU 76 18 329
1871229N11329 1871 17 NA NA NOT_NAMED 1871-08-25 06:00:00 TS 27.3333 -80.5000 90 hurdat_atl main 0 0 O____________O hurdat_atl AL041871 27.7000 -80.5000 HU 90 2 26.6000 -80.5000 HU 75 18 330
1871229N11329 1871 17 NA NA NOT_NAMED 1871-08-25 09:00:00 TS 27.9171 -80.9672 main 0 0 P____________P AL041871 28.4045 -80.9508 HU 80 1 26.9423 -81.0002 HU 72 10 310
1871229N11329 1871 17 NA NA NOT_NAMED 1871-08-25 12:00:00 TS 27.9667 -81.3667 70 hurdat_atl main 0 0 O____________O hurdat_atl AL041871 28.3000 -81.3000 HU 70 1 27.3000 -81.5000 HU 70 8 295
1871229N11329 1871 17 NA NA NOT_NAMED 1871-08-25 15:00:00 TS 28.2808 -81.8360 main 0 0 P____________P AL041871 28.6074 -81.7426 HU 60 0 27.6275 -82.0228 HU 60 10 308
1871229N11329 1871 17 NA NA NOT_NAMED 1871-08-25 18:00:00 TS 28.6000 -82.3000 50 hurdat_atl main 0 0 O____________O hurdat_atl AL041871 28.9000 -82.2000 TS 50 0 28.0000 -82.5000 TS 50 10 309
1871229N11329 1871 17 NA GM NOT_NAMED 1871-08-25 21:00:00 TS 28.9307 -82.7344 main 9 0 P____________P AL041871 29.1575 -82.6652 TS 45 0 28.4772 -82.8729 TS 45 10 312
1871229N11329 1871 17 NA GM NOT_NAMED 1871-08-26 00:00:00 TS 29.2667 -83.1333 40 hurdat_atl main 0 0 O____________O hurdat_atl AL041871 29.4000 -83.1000 TS 40 0 29.0000 -83.2000 TS 40 9 315
1871229N11329 1871 17 NA GM NOT_NAMED 1871-08-26 03:00:00 TS 29.5949 -83.5061 main 9 9 P____________P AL041871 29.6424 -83.4802 TS 40 0 29.5000 -83.5577 TS 40 9 318
1871229N11329 1871 17 NA GM NOT_NAMED 1871-08-26 06:00:00 TS 29.9333 -83.8333 40 hurdat_atl main 9 0 O____________O hurdat_atl AL041871 29.9000 -83.8000 TS 40 0 30.0000 -83.9000 TS 40 9 323
1871229N11329 1871 17 NA NA NOT_NAMED 1871-08-26 09:00:00 TS 30.3049 -84.1301 main 0 0 P____________P AL041871 30.2075 -84.0874 TS 40 0 30.4999 -84.2153 TS 40 9 328
1871229N11329 1871 17 NA NA NOT_NAMED 1871-08-26 12:00:00 TS 30.6667 -84.3667 40 hurdat_atl main 0 0 O____________O hurdat_atl AL041871 30.5000 -84.3000 TS 40 0 31.0000 -84.5000 TS 40 8 332
1871229N11329 1871 17 NA NA NOT_NAMED 1871-08-26 15:00:00 TS 30.9766 -84.5469 main 0 0 P____________P AL041871 30.7149 -84.4377 TS 40 0 31.4999 -84.7653 TS 40 7 337
1871229N11329 1871 17 NA NA NOT_NAMED 1871-08-26 18:00:00 TS 31.2667 -84.6667 40 hurdat_atl main 0 0 O____________O hurdat_atl AL041871 30.9000 -84.5000 TS 40 0 32.0000 -85.0000 TS 40 6 344
1871229N11329 1871 17 NA NA NOT_NAMED 1871-08-26 21:00:00 TS 31.5666 -84.7485 main 0 0 P____________P AL041871 31.1000 -84.5225 TS 35 0 32.4999 -85.2005 TS 35 6 349
1871229N11329 1871 17 NA NA NOT_NAMED 1871-08-27 00:00:00 TS 31.8667 -84.8000 30 hurdat_atl main 0 0 O____________O hurdat_atl AL041871 31.3000 -84.5000 TD 30 -1 33.0000 -85.4000 TD 30 6 350
1871229N11329 1871 17 NA NA NOT_NAMED 1871-08-27 03:00:00 TS 32.1716 -84.8700 main 0 0 P____________P AL041871 31.5075 -84.4799 TD 30 -1 33.5000 -85.6500 TD 30 6 352
1871229N11329 1871 17 NA NA NOT_NAMED 1871-08-27 06:00:00 TS 32.4667 -84.9000 30 hurdat_atl main 0 0 O____________O hurdat_atl AL041871 31.7000 -84.4000 TD 30 -1 34.0000 -85.9000 TD 30 6 357
1871229N11329 1871 17 NA NA NOT_NAMED 1871-08-27 09:00:00 TS 32.7658 -84.8807 main 0 0 P____________P AL041871 31.8725 -84.2301 TD 30 -1 34.5525 -86.1818 TD 30 5 12
1871229N11329 1871 17 NA NA NOT_NAMED 1871-08-27 12:00:00 TS 33.0000 -84.7667 30 hurdat_atl main 0 0 O____________O hurdat_atl AL041871 32.0000 -84.0000 TD 30 -1 35.0000 -86.3000 TD 30 5 40
1871229N11329 1871 17 NA NA NOT_NAMED 1871-08-27 15:00:00 TS 33.1159 -84.5301 main 0 0 P____________P AL041871 32.0650 -83.7574 TD 30 -1 35.2176 -86.0756 TD 30 5 70
1871229N11329 1871 17 NA NA NOT_NAMED 1871-08-27 18:00:00 TS 33.1667 -84.2333 30 hurdat_atl main 0 0 O____________O hurdat_atl AL041871 32.1000 -83.5000 TD 30 -1 35.3000 -85.7000 TD 30 5 77
1871229N11329 1871 17 NA NA NOT_NAMED 1871-08-27 21:00:00 TS 33.2266 -83.9666 main 0 0 P____________P AL041871 32.1574 -83.2500 TD 30 -1 35.3649 -85.3998 TD 30 5 77
1871229N11329 1871 17 NA NA NOT_NAMED 1871-08-28 00:00:00 TS 33.2667 -83.7000 30 hurdat_atl main 0 0 O____________O hurdat_atl AL041871 32.2000 -83.0000 TD 30 -1 35.4000 -85.1000 TD 30 5 83
1871229N11329 1871 17 NA NA NOT_NAMED 1871-08-28 03:00:00 TS 33.2808 -83.4307 main 0 0 P____________P AL041871 32.2000 -82.7424 TD 30 -1 35.4424 -84.8074 TD 30 4 86
1871229N11329 1871 17 NA NA NOT_NAMED 1871-08-28 06:00:00 TS 33.3000 -83.1667 30 hurdat_atl main 0 0 O____________O hurdat_atl AL041871 32.2000 -82.5000 TD 30 -1 35.5000 -84.5000 TD 30 4 79
1871229N11329 1871 17 NA NA NOT_NAMED 1871-08-28 09:00:00 TS 33.3587 -82.9641 main 0 0 P____________P AL041871 32.2420 -82.3449 TD 30 -1 35.5919 -84.2023 TD 30 4 72
1871229N11329 1871 17 NA NA NOT_NAMED 1871-08-28 12:00:00 TS 33.4333 -82.6667 30 hurdat_atl main 0 0 O____________O hurdat_atl AL041871 32.3000 -82.1000 TD 30 -1 35.7000 -83.8000 TD 30 7 78
1871229N11329 1871 17 NA NA NOT_NAMED 1871-08-28 15:00:00 TS 33.5003 -82.1333 main 0 0 P____________P AL041871 32.3503 -81.6025 TD 30 -1 35.8003 -83.1950 TD 30 10 82
1871229N11329 1871 17 NA NA NOT_NAMED 1871-08-28 18:00:00 TS 33.5667 -81.5000 30 hurdat_atl main 0 0 O____________O hurdat_atl AL041871 32.4000 -81.0000 TD 30 -1 35.9000 -82.5000 TD 30 10 83
1871229N11329 1871 17 NA NA NOT_NAMED 1871-08-28 21:00:00 TS 33.6279 -80.9264 main 0 0 P____________P AL041871 32.4421 -80.4648 TD 35 0 35.9996 -81.8498 TD 30 10 82
1871229N11329 1871 17 NA NA NOT_NAMED 1871-08-29 00:00:00 TS 33.7000 -80.3333 40 hurdat_atl main 0 0 O____________O hurdat_atl AL041871 32.5000 -79.9000 TS 40 0 36.1000 -81.2000 TD 30 10 81
1871229N11329 1871 17 NA NA NOT_NAMED 1871-08-29 03:00:00 TS 33.7900 -79.6833 main 0 0 P____________P AL041871 32.5851 -79.2500 TS 40 0 36.1996 -80.5498 TD 30 11 80
1871229N11329 1871 17 NA NA NOT_NAMED 1871-08-29 06:00:00 TS 33.9000 -79.0333 40 hurdat_atl main 0 0 O____________O hurdat_atl AL041871 32.7000 -78.6000 TS 40 0 36.3000 -79.9000 TD 30 10 79
1871229N11329 1871 17 NA NA NOT_NAMED 1871-08-29 09:00:00 TS 33.9902 -78.4539 main 0 0 P____________P AL041871 32.7892 -78.0561 TS 45 0 36.3922 -79.2496 TD 30 10 75
1871229N11329 1871 17 NA NA NOT_NAMED 1871-08-29 12:00:00 TS 34.1667 -77.8667 50 hurdat_atl main 0 0 O____________O hurdat_atl AL041871 33.0000 -77.5000 TS 50 0 36.5000 -78.6000 TD 30 11 64
1871229N11329 1871 17 NA NA NOT_NAMED 1871-08-29 15:00:00 TS 34.4895 -77.2176 main 14 0 P____________P AL041871 33.4095 -76.8514 TS 50 0 36.6496 -77.9501 TD 30 14 56
1871229N11329 1871 17 NA NA NOT_NAMED 1871-08-29 18:00:00 TS 34.9333 -76.5000 50 hurdat_atl main 0 0 O____________O hurdat_atl AL041871 34.0000 -76.1000 TS 50 0 36.8000 -77.3000 TD 30 16 53
1871229N11329 1871 17 NA NA NOT_NAMED 1871-08-29 21:00:00 TS 35.4265 -75.7075 main 22 11 P____________P AL041871 34.6899 -75.2366 TS 50 0 36.8996 -76.6495 TD 30 17 51
1871229N11329 1871 17 NA NA NOT_NAMED 1871-08-30 00:00:00 TS 36.0000 -74.8667 50 hurdat_atl main 58 58 O____________O hurdat_atl AL041871 35.5000 -74.3000 TS 50 0 37.0000 -76.0000 TD 30 18 49
1871229N11329 1871 17 NA NA NOT_NAMED 1871-08-30 03:00:00 TS 36.6021 -74.0173 main 157 157 P____________P AL041871 36.3470 -73.3551 TS 50 0 37.1123 -75.3417 TD 35 19 46
1871229N11329 1871 17 NA NA NOT_NAMED 1871-08-30 06:00:00 TS 37.3000 -73.1667 50 hurdat_atl main 200 200 O____________O hurdat_atl AL041871 37.3000 -72.4000 TS 50 0 37.3000 -74.7000 TS 40 20 42
1871229N11329 1871 17 NA NA NOT_NAMED 1871-08-30 09:00:00 TS 38.1067 -72.3388 main 232 221 P____________P AL041871 38.3467 -71.4544 TS 55 0 37.6268 -74.1076 TS 42 20 36
1871229N11329 1871 17 NA NA NOT_NAMED 1871-08-30 12:00:00 TS 38.9000 -71.7000 60 hurdat_atl main 224 187 O____________O hurdat_atl AL041871 39.5000 -70.5000 TS 60 0 38.0000 -73.5000 TS 45 17 34
1871229N11329 1871 17 NA NA NOT_NAMED 1871-08-30 15:00:00 TS 39.4821 -71.1652 main 187 182 P____________P AL041871 40.7318 -69.5182 TS 60 0 38.2324 -72.8122 TS 47 10 37
1871229N11329 1871 17 NA NA NOT_NAMED 1871-08-30 18:00:00 TS 39.7333 -70.9000 60 hurdat_atl main 188 182 O____________O hurdat_atl AL041871 42.0000 -68.5000 TS 60 0 38.6000 -72.1000 TS 50 3 231
1871229N11329 1871 17 NA NA NOT_NAMED 1871-08-30 21:00:00 TS 39.2775 -71.4921 main 191 155 _____________P AL041871 TS -1 39.2775 -71.4921 TS 52 5 18
1871229N11329 1871 17 NA NA NOT_NAMED 1871-08-31 00:00:00 TS 40.2000 -70.7000 main 144 69 _____________O 40.2000 -70.7000 TS 55 25 38
1871229N11329 1871 17 NA NA NOT_NAMED 1871-08-31 03:00:00 TS 41.2413 -69.4553 main 69 66 _____________P 41.2413 -69.4553 TS 55 30 43
1871229N11329 1871 17 NA NA NOT_NAMED 1871-08-31 06:00:00 TS 42.4000 -68.0000 main 177 52 _____________O 42.4000 -68.0000 TS 55 1000 31 42
1871229N11329 1871 17 NA NA NOT_NAMED 1871-08-31 09:00:00 TS 43.5836 -66.6033 main 38 0 _____________P 43.5836 -66.6033 TS 55 31 40
1871229N11329 1871 17 NA NA NOT_NAMED 1871-08-31 12:00:00 TS 44.8000 -65.2000 main 0 0 _____________O 44.8000 -65.2000 TS 55 31 39
1871229N11329 1871 17 NA NA NOT_NAMED 1871-08-31 15:00:00 TS 46.0081 -63.8091 main 11 0 _____________P 46.0081 -63.8091 TS 52 31 39
1871229N11329 1871 17 NA NA NOT_NAMED 1871-08-31 18:00:00 ET 47.2000 -62.4000 main 88 _____________O 47.2000 -62.4000 EX 50 31 39

IBTrACS Databaseについて

本データベースは、米国NOAAが公開する1842年以降の世界の熱帯低気圧のベストトラックデータアーカイブInternational Best Track Archive for Climate Stewardship (IBTrACS)を、ウェブで閲覧しやすい形式に変換したものです。

最終更新日:2021-10-19